createdAt,value
2023-01-17T00:00:09.062Z,-4.45
2023-01-17T00:02:54.725Z,-4.32
2023-01-17T00:05:59.245Z,-4.30
2023-01-17T00:09:03.527Z,-4.24
2023-01-17T00:11:49.141Z,-4.19
2023-01-17T00:14:34.709Z,-4.09
2023-01-17T00:17:20.204Z,-4.01
2023-01-17T00:20:24.815Z,-3.88
2023-01-17T00:23:44.681Z,-3.82
2023-01-17T00:26:31.974Z,-3.80
2023-01-17T00:29:17.522Z,-3.80
2023-01-17T00:32:02.790Z,-3.79
2023-01-17T00:34:48.002Z,-3.77
2023-01-17T00:37:33.444Z,-3.80
2023-01-17T00:40:18.703Z,-3.81
2023-01-17T00:43:23.798Z,-3.80
2023-01-17T00:46:27.944Z,-3.84
2023-01-17T00:49:31.902Z,-3.86
2023-01-17T00:52:35.853Z,-3.79
2023-01-17T00:55:39.903Z,-3.80
2023-01-17T00:58:43.881Z,-3.89
2023-01-17T01:01:48.142Z,-3.92
2023-01-17T01:04:52.201Z,-4.01
2023-01-17T01:07:56.288Z,-4.11
2023-01-17T01:11:01.327Z,-4.12
2023-01-17T01:14:05.687Z,-4.14
2023-01-17T01:17:09.879Z,-4.05
2023-01-17T01:20:13.895Z,-3.99
2023-01-17T01:23:22.895Z,-3.90
2023-01-17T01:26:26.880Z,-3.84
2023-01-17T01:29:31.119Z,-3.86
2023-01-17T01:32:35.056Z,-3.91
2023-01-17T01:35:22.016Z,-4.01
2023-01-17T01:38:07.656Z,-4.09
2023-01-17T01:40:55.751Z,-4.10
2023-01-17T01:43:44.424Z,-4.09
2023-01-17T01:46:29.700Z,-3.91
2023-01-17T01:49:21.986Z,-3.87
2023-01-17T01:52:09.018Z,-3.82
2023-01-17T01:55:03.345Z,-3.79
2023-01-17T01:57:52.802Z,-3.81
2023-01-17T02:00:41.072Z,-3.82
2023-01-17T02:03:31.252Z,-3.83
2023-01-17T02:06:19.368Z,-3.84
2023-01-17T02:09:08.664Z,-3.85
2023-01-17T02:11:54.734Z,-3.82
2023-01-17T02:14:40.035Z,-3.80
2023-01-17T02:17:30.065Z,-3.79
2023-01-17T02:20:27.449Z,-3.73
2023-01-17T02:23:22.216Z,-3.73
2023-01-17T02:26:26.153Z,-3.79
2023-01-17T02:29:30.358Z,-3.87
2023-01-17T02:33:02.025Z,-3.87
2023-01-17T02:36:04.626Z,-3.93
2023-01-17T02:39:17.868Z,-3.96
2023-01-17T02:42:09.886Z,-4.03
2023-01-17T02:44:55.503Z,-4.08
2023-01-17T02:47:40.921Z,-4.11
2023-01-17T02:50:37.505Z,-4.16
2023-01-17T02:53:38.386Z,-4.24
2023-01-17T02:56:46.793Z,-4.27
2023-01-17T03:00:01.742Z,-4.38
2023-01-17T03:02:56.274Z,-4.47
2023-01-17T03:05:49.764Z,-4.59
2023-01-17T03:08:35.244Z,-4.65
2023-01-17T03:11:20.953Z,-4.71
2023-01-17T03:14:06.582Z,-4.75
2023-01-17T03:16:53.079Z,-4.71
2023-01-17T03:19:38.678Z,-4.73
2023-01-17T03:22:24.218Z,-4.81
2023-01-17T03:25:10.097Z,-4.92
2023-01-17T03:27:55.752Z,-4.99
2023-01-17T03:30:41.129Z,-5.04
2023-01-17T03:33:26.402Z,-5.02
2023-01-17T03:36:12.307Z,-4.99
2023-01-17T03:38:57.781Z,-4.87
2023-01-17T03:41:43.028Z,-4.80
2023-01-17T03:44:28.561Z,-4.73
2023-01-17T03:47:13.679Z,-4.79
2023-01-17T03:49:59.162Z,-4.75
2023-01-17T03:52:44.342Z,-4.79
2023-01-17T03:55:29.902Z,-4.85
2023-01-17T03:58:16.380Z,-4.82
2023-01-17T04:01:02.125Z,-4.80
2023-01-17T04:03:47.952Z,-4.78
2023-01-17T04:06:33.278Z,-4.79
2023-01-17T04:09:18.599Z,-4.77
2023-01-17T04:12:04.104Z,-4.74
2023-01-17T04:14:49.559Z,-4.76
2023-01-17T04:17:35.593Z,-4.73
2023-01-17T04:20:36.677Z,-4.62
2023-01-17T04:23:22.269Z,-4.66
2023-01-17T04:26:08.859Z,-4.66
2023-01-17T04:28:54.561Z,-4.72
2023-01-17T04:31:39.882Z,-4.76
2023-01-17T04:34:25.672Z,-4.70
2023-01-17T04:37:10.854Z,-4.67
2023-01-17T04:39:56.512Z,-4.69
2023-01-17T04:42:44.307Z,-4.64
2023-01-17T04:45:29.775Z,-4.57
2023-01-17T04:48:15.203Z,-4.50
2023-01-17T04:51:02.197Z,-4.45
2023-01-17T04:53:47.843Z,-4.45
2023-01-17T04:56:33.057Z,-4.49
2023-01-17T04:59:18.362Z,-4.49
2023-01-17T05:02:03.904Z,-4.51
2023-01-17T05:04:49.058Z,-4.53
2023-01-17T05:07:35.820Z,-4.53
2023-01-17T05:10:21.896Z,-4.53
2023-01-17T05:13:07.328Z,-4.59
2023-01-17T05:15:53.410Z,-4.65
2023-01-17T05:18:39.180Z,-4.72
2023-01-17T05:21:25.069Z,-4.75
2023-01-17T05:24:10.930Z,-4.84
2023-01-17T05:26:56.090Z,-4.99
2023-01-17T05:29:41.764Z,-5.12
2023-01-17T05:32:27.367Z,-5.24
2023-01-17T05:35:12.793Z,-5.28
2023-01-17T05:37:59.234Z,-5.22
2023-01-17T05:40:44.515Z,-5.15
2023-01-17T05:43:29.757Z,-5.13
2023-01-17T05:46:16.316Z,-5.07
2023-01-17T05:49:01.821Z,-5.01
2023-01-17T05:51:47.203Z,-4.92
2023-01-17T05:54:32.490Z,-4.88
2023-01-17T05:57:17.974Z,-4.92
2023-01-17T06:00:03.948Z,-4.97
2023-01-17T06:02:50.541Z,-5.06
2023-01-17T06:05:36.055Z,-5.11
2023-01-17T06:08:23.542Z,-5.10
2023-01-17T06:11:09.063Z,-5.04
2023-01-17T06:13:54.574Z,-4.98
2023-01-17T06:16:40.111Z,-4.97
2023-01-17T06:19:25.827Z,-4.91
2023-01-17T06:22:11.093Z,-4.90
2023-01-17T06:24:56.447Z,-4.90
2023-01-17T06:27:41.844Z,-4.91
2023-01-17T06:30:27.359Z,-4.91
2023-01-17T06:33:13.463Z,-4.90
2023-01-17T06:35:59.054Z,-4.92
2023-01-17T06:38:44.324Z,-4.93
2023-01-17T06:41:29.654Z,-4.92
2023-01-17T06:44:15.091Z,-4.87
2023-01-17T06:47:00.559Z,-4.82
2023-01-17T06:49:45.900Z,-4.80
2023-01-17T06:52:31.265Z,-4.78
2023-01-17T06:55:16.788Z,-4.78
2023-01-17T06:58:05.525Z,-4.84
2023-01-17T07:00:51.175Z,-4.82
2023-01-17T07:03:37.931Z,-4.77
2023-01-17T07:06:25.109Z,-4.73
2023-01-17T07:09:10.824Z,-4.75
2023-01-17T07:11:59.758Z,-4.70
2023-01-17T07:14:45.445Z,-4.74
2023-01-17T07:17:31.082Z,-4.75
2023-01-17T07:20:16.765Z,-4.79
2023-01-17T07:23:02.279Z,-4.79
2023-01-17T07:26:14.174Z,-4.76
2023-01-17T07:28:59.787Z,-4.77
2023-01-17T07:31:45.344Z,-4.77
2023-01-17T07:34:30.834Z,-4.81
2023-01-17T07:37:16.364Z,-4.81
2023-01-17T07:40:02.618Z,-4.83
2023-01-17T07:42:48.423Z,-4.87
2023-01-17T07:45:33.692Z,-4.86
2023-01-17T07:48:20.755Z,-4.85
2023-01-17T07:51:06.365Z,-4.83
2023-01-17T07:53:51.800Z,-4.86
2023-01-17T07:56:37.722Z,-4.86
2023-01-17T07:59:23.070Z,-4.91
2023-01-17T08:02:17.805Z,-4.90
2023-01-17T08:05:03.129Z,-4.86
2023-01-17T08:07:48.520Z,-4.82
2023-01-17T08:10:34.024Z,-4.77
2023-01-17T08:13:20.151Z,-4.75
2023-01-17T08:16:06.378Z,-4.73
2023-01-17T08:18:52.095Z,-4.80
2023-01-17T08:21:37.770Z,-4.81
2023-01-17T08:24:23.231Z,-4.77
2023-01-17T08:27:09.248Z,-4.81
2023-01-17T08:29:55.013Z,-4.83
2023-01-17T08:32:40.984Z,-4.84
2023-01-17T08:35:27.908Z,-4.79
2023-01-17T08:38:13.254Z,-4.76
2023-01-17T08:41:01.654Z,-4.77
2023-01-17T08:43:48.334Z,-4.75
2023-01-17T08:46:33.920Z,-4.74
2023-01-17T08:49:19.280Z,-4.74
2023-01-17T08:52:05.507Z,-4.73
2023-01-17T08:54:53.293Z,-4.75
2023-01-17T08:57:38.603Z,-4.75
2023-01-17T09:00:24.150Z,-4.74
2023-01-17T09:03:14.047Z,-4.70
2023-01-17T09:06:03.811Z,-4.68
2023-01-17T09:08:52.008Z,-4.66
2023-01-17T09:11:37.782Z,-4.61
2023-01-17T09:14:23.134Z,-4.60
2023-01-17T09:17:08.365Z,-4.58
2023-01-17T09:19:53.719Z,-4.58
2023-01-17T09:22:39.205Z,-4.53
2023-01-17T09:25:24.571Z,-4.48
2023-01-17T09:28:11.095Z,-4.43
2023-01-17T09:30:56.709Z,-4.38
2023-01-17T09:33:43.311Z,-4.33
2023-01-17T09:36:29.308Z,-4.28
2023-01-17T09:39:15.425Z,-4.24
2023-01-17T09:42:06.785Z,-4.21
2023-01-17T09:44:52.777Z,-4.18
2023-01-17T09:47:43.659Z,-4.15
2023-01-17T09:50:47.217Z,-4.08
2023-01-17T09:53:36.105Z,-4.01
2023-01-17T09:56:31.349Z,-3.95
2023-01-17T09:59:38.920Z,-3.90
2023-01-17T10:03:03.599Z,-3.84
2023-01-17T10:06:07.915Z,-3.80
2023-01-17T10:08:59.885Z,-3.73
2023-01-17T10:12:07.290Z,-3.66
2023-01-17T10:15:10.887Z,-3.60
2023-01-17T10:18:05.348Z,-3.54
2023-01-17T10:21:13.310Z,-3.47
2023-01-17T10:24:23.050Z,-3.44
2023-01-17T10:27:28.337Z,-3.39
2023-01-17T10:30:25.367Z,-3.34
2023-01-17T10:33:51.768Z,-3.29
2023-01-17T10:36:41.508Z,-3.25
2023-01-17T10:39:31.004Z,-3.21
2023-01-17T10:42:42.968Z,-3.14
2023-01-17T10:45:30.356Z,-3.05
2023-01-17T10:48:32.669Z,-3.00
2023-01-17T10:51:50.826Z,-2.93
2023-01-17T10:54:50.024Z,-2.86
2023-01-17T10:57:47.497Z,-2.77
2023-01-17T11:00:51.197Z,-2.69
2023-01-17T11:03:36.570Z,-2.61
2023-01-17T11:06:25.988Z,-2.52
2023-01-17T11:09:12.029Z,-2.49
2023-01-17T11:11:57.420Z,-2.42
2023-01-17T11:15:01.343Z,-2.35
2023-01-17T11:17:53.319Z,-2.25
2023-01-17T11:20:40.185Z,-2.17
2023-01-17T11:23:31.817Z,-2.10
2023-01-17T11:26:27.681Z,-1.98
2023-01-17T11:29:29.673Z,-1.89
2023-01-17T11:32:33.260Z,-1.79
2023-01-17T11:35:33.167Z,-1.68
2023-01-17T11:38:22.370Z,-1.60
2023-01-17T11:41:21.703Z,-1.52
2023-01-17T11:44:26.082Z,-1.42
2023-01-17T11:47:19.299Z,-1.34
2023-01-17T11:50:24.027Z,-1.25
2023-01-17T11:53:15.775Z,-1.19
2023-01-17T11:56:11.470Z,-1.13
2023-01-17T11:59:15.613Z,-1.08
2023-01-17T12:02:31.971Z,-1.01
2023-01-17T12:05:48.346Z,-0.93
2023-01-17T12:09:12.686Z,-0.83
2023-01-17T12:12:34.944Z,-0.75
2023-01-17T12:15:30.240Z,-0.70
2023-01-17T12:18:54.022Z,-0.65
2023-01-17T12:21:48.818Z,-0.63
2023-01-17T12:24:58.973Z,-0.59
2023-01-17T12:27:53.342Z,-0.51
2023-01-17T12:31:08.142Z,-0.51
2023-01-17T12:34:14.964Z,-0.55
2023-01-17T12:37:18.270Z,-0.51
2023-01-17T12:40:16.619Z,-0.49
2023-01-17T12:43:25.660Z,-0.49
2023-01-17T12:46:27.260Z,-0.50
2023-01-17T12:49:45.936Z,-0.50
2023-01-17T12:52:59.943Z,-0.43
2023-01-17T12:55:59.596Z,-0.34
2023-01-17T12:58:49.670Z,-0.26
2023-01-17T13:01:43.337Z,-0.19
2023-01-17T13:04:57.463Z,-0.13
2023-01-17T13:08:07.795Z,-0.09
2023-01-17T13:11:04.073Z,-0.03
2023-01-17T13:13:51.581Z,0.00
2023-01-17T13:16:46.449Z,0.08
2023-01-17T13:19:55.636Z,0.13
2023-01-17T13:22:43.314Z,0.19
2023-01-17T13:25:44.740Z,0.24
2023-01-17T13:28:44.800Z,0.25
2023-01-17T13:31:57.815Z,0.30
2023-01-17T13:35:01.765Z,0.30
2023-01-17T13:38:08.571Z,0.31
2023-01-17T13:41:35.736Z,0.30
2023-01-17T13:44:27.314Z,0.33
2023-01-17T13:47:18.975Z,0.34
2023-01-17T13:50:06.835Z,0.37
2023-01-17T13:52:58.041Z,0.39
2023-01-17T13:55:53.456Z,0.41
2023-01-17T13:58:45.403Z,0.43
2023-01-17T14:01:38.922Z,0.45
2023-01-17T14:04:25.118Z,0.47
2023-01-17T14:07:25.690Z,0.50
2023-01-17T14:10:32.620Z,0.54
2023-01-17T14:13:37.769Z,0.57
2023-01-17T14:16:27.690Z,0.62
2023-01-17T14:19:26.741Z,0.64
2023-01-17T14:22:21.416Z,0.70
2023-01-17T14:25:15.037Z,0.73
2023-01-17T14:28:04.384Z,0.76
2023-01-17T14:30:56.005Z,0.78
2023-01-17T14:33:42.021Z,0.78
2023-01-17T14:36:32.599Z,0.77
2023-01-17T14:39:22.589Z,0.78
2023-01-17T14:42:15.464Z,0.79
2023-01-17T14:45:06.665Z,0.79
2023-01-17T14:47:52.912Z,0.80
2023-01-17T14:50:40.888Z,0.81
2023-01-17T14:53:31.593Z,0.83
2023-01-17T14:56:17.274Z,0.84
2023-01-17T14:59:17.076Z,0.87
2023-01-17T15:02:08.721Z,0.95
2023-01-17T15:04:55.301Z,1.01
2023-01-17T15:07:43.136Z,1.09
2023-01-17T15:10:32.756Z,1.12
2023-01-17T15:13:29.770Z,1.16
2023-01-17T15:16:30.104Z,1.18
2023-01-17T15:19:15.696Z,1.15
2023-01-17T15:22:01.081Z,1.10
2023-01-17T15:24:47.908Z,1.04
2023-01-17T15:27:33.688Z,0.94
2023-01-17T15:30:19.038Z,0.88
2023-01-17T15:33:05.004Z,0.83
2023-01-17T15:36:21.212Z,0.79
2023-01-17T15:39:18.008Z,0.72
2023-01-17T15:42:07.893Z,0.66
2023-01-17T15:45:00.908Z,0.61
2023-01-17T15:47:47.011Z,0.60
2023-01-17T15:50:36.534Z,0.56
2023-01-17T15:53:36.645Z,0.58
2023-01-17T15:56:33.550Z,0.63
2023-01-17T15:59:42.378Z,0.68
2023-01-17T16:02:33.225Z,0.72
2023-01-17T16:05:22.619Z,0.70
2023-01-17T16:08:08.308Z,0.65
2023-01-17T16:10:56.790Z,0.61
2023-01-17T16:13:43.534Z,0.54
2023-01-17T16:16:29.500Z,0.45
2023-01-17T16:19:15.520Z,0.33
2023-01-17T16:22:05.089Z,0.25
2023-01-17T16:24:50.838Z,0.16
2023-01-17T16:27:36.534Z,0.06
2023-01-17T16:30:22.429Z,0.02
2023-01-17T16:33:11.836Z,-0.02
2023-01-17T16:35:56.959Z,-0.10
2023-01-17T16:38:45.047Z,-0.11
2023-01-17T16:41:30.524Z,-0.15
2023-01-17T16:44:16.794Z,-0.16
2023-01-17T16:47:02.201Z,-0.18
2023-01-17T16:49:47.670Z,-0.21
2023-01-17T16:52:33.263Z,-0.27
2023-01-17T16:55:22.182Z,-0.28
2023-01-17T16:58:07.899Z,-0.29
2023-01-17T17:00:55.507Z,-0.31
2023-01-17T17:03:41.914Z,-0.38
2023-01-17T17:06:27.599Z,-0.39
2023-01-17T17:09:12.856Z,-0.40
2023-01-17T17:11:58.215Z,-0.47
2023-01-17T17:14:43.550Z,-0.49
2023-01-17T17:17:29.214Z,-0.57
2023-01-17T17:20:15.693Z,-0.59
2023-01-17T17:23:00.916Z,-0.64
2023-01-17T17:25:54.695Z,-0.66
2023-01-17T17:28:40.426Z,-0.71
2023-01-17T17:31:25.822Z,-0.78
2023-01-17T17:34:13.077Z,-0.83
2023-01-17T17:36:58.426Z,-0.93
2023-01-17T17:39:44.680Z,-0.99
2023-01-17T17:42:30.172Z,-1.03
2023-01-17T17:45:15.737Z,-1.11
2023-01-17T17:48:01.215Z,-1.12
2023-01-17T17:50:58.299Z,-1.13
2023-01-17T17:53:45.291Z,-1.15
2023-01-17T17:56:32.641Z,-1.15
2023-01-17T17:59:19.586Z,-1.17
2023-01-17T18:02:06.829Z,-1.18
2023-01-17T18:04:52.591Z,-1.22
2023-01-17T18:07:37.812Z,-1.26
2023-01-17T18:10:23.257Z,-1.29
2023-01-17T18:13:08.693Z,-1.31
2023-01-17T18:16:08.905Z,-1.31
2023-01-17T18:18:57.150Z,-1.32
2023-01-17T18:21:43.622Z,-1.34
2023-01-17T18:24:29.317Z,-1.37
2023-01-17T18:27:15.379Z,-1.36
2023-01-17T18:30:00.680Z,-1.37
2023-01-17T18:32:49.935Z,-1.40
2023-01-17T18:35:35.642Z,-1.41
2023-01-17T18:38:20.987Z,-1.45
2023-01-17T18:41:12.643Z,-1.50
2023-01-17T18:43:59.085Z,-1.53
2023-01-17T18:46:45.250Z,-1.58
2023-01-17T18:49:32.701Z,-1.65
2023-01-17T18:52:19.569Z,-1.71
2023-01-17T18:55:05.794Z,-1.68
2023-01-17T18:57:51.347Z,-1.68
2023-01-17T19:00:36.856Z,-1.68
2023-01-17T19:03:28.967Z,-1.66
2023-01-17T19:06:18.645Z,-1.67
2023-01-17T19:09:05.621Z,-1.62
2023-01-17T19:11:51.412Z,-1.67
2023-01-17T19:14:37.312Z,-1.68
2023-01-17T19:17:22.506Z,-1.68
2023-01-17T19:20:09.077Z,-1.71
2023-01-17T19:22:54.445Z,-1.70
2023-01-17T19:25:39.734Z,-1.76
2023-01-17T19:28:25.222Z,-1.72
2023-01-17T19:31:16.121Z,-1.64
2023-01-17T19:34:01.328Z,-1.61
2023-01-17T19:36:47.351Z,-1.65
2023-01-17T19:39:33.327Z,-1.62
2023-01-17T19:42:19.219Z,-1.58
2023-01-17T19:45:05.029Z,-1.58
2023-01-17T19:47:50.524Z,-1.59
2023-01-17T19:50:35.902Z,-1.62
2023-01-17T19:53:24.560Z,-1.65
2023-01-17T19:56:18.877Z,-1.66
2023-01-17T19:59:04.286Z,-1.63
2023-01-17T20:01:50.041Z,-1.57
2023-01-17T20:04:35.794Z,-1.53
2023-01-17T20:07:21.166Z,-1.53
2023-01-17T20:10:06.905Z,-1.57
2023-01-17T20:12:52.654Z,-1.59
2023-01-17T20:15:38.018Z,-1.57
2023-01-17T20:18:23.350Z,-1.57
2023-01-17T20:21:21.075Z,-1.58
2023-01-17T20:24:09.962Z,-1.57
2023-01-17T20:26:58.086Z,-1.50
2023-01-17T20:29:43.984Z,-1.52
2023-01-17T20:32:29.592Z,-1.45
2023-01-17T20:35:16.091Z,-1.42
2023-01-17T20:38:01.702Z,-1.41
2023-01-17T20:40:54.049Z,-1.34
2023-01-17T20:43:40.240Z,-1.31
2023-01-17T20:46:29.018Z,-1.26
2023-01-17T20:49:18.878Z,-1.23
2023-01-17T20:52:06.199Z,-1.21
2023-01-17T20:54:51.946Z,-1.23
2023-01-17T20:57:37.565Z,-1.20
2023-01-17T21:00:23.095Z,-1.18
2023-01-17T21:03:08.582Z,-1.18
2023-01-17T21:05:59.560Z,-1.20
2023-01-17T21:08:46.305Z,-1.18
2023-01-17T21:11:34.111Z,-1.18
2023-01-17T21:14:21.833Z,-1.15
2023-01-17T21:17:07.772Z,-1.07
2023-01-17T21:19:53.425Z,-1.09
2023-01-17T21:22:38.773Z,-1.12
2023-01-17T21:25:24.052Z,-1.13
2023-01-17T21:28:09.438Z,-1.10
2023-01-17T21:30:55.991Z,-1.06
2023-01-17T21:33:41.434Z,-1.07
2023-01-17T21:36:33.183Z,-1.08
2023-01-17T21:39:19.185Z,-1.01
2023-01-17T21:42:04.898Z,-1.00
2023-01-17T21:44:50.378Z,-0.99
2023-01-17T21:47:35.772Z,-0.96
2023-01-17T21:50:32.723Z,-0.92
2023-01-17T21:53:18.745Z,-0.86
2023-01-17T21:56:25.199Z,-0.79
2023-01-17T21:59:10.910Z,-0.76
2023-01-17T22:01:56.336Z,-0.72
2023-01-17T22:04:42.080Z,-0.65
2023-01-17T22:07:29.140Z,-0.62
2023-01-17T22:10:14.489Z,-0.58
2023-01-17T22:13:00.024Z,-0.55
2023-01-17T22:15:46.315Z,-0.54
2023-01-17T22:18:34.140Z,-0.51
2023-01-17T22:21:22.062Z,-0.55
2023-01-17T22:24:07.815Z,-0.51
2023-01-17T22:26:53.167Z,-0.54
2023-01-17T22:29:38.773Z,-0.54
2023-01-17T22:32:24.171Z,-0.51
2023-01-17T22:35:09.895Z,-0.51
2023-01-17T22:37:55.355Z,-0.51
2023-01-17T22:40:40.950Z,-0.50
2023-01-17T22:43:27.340Z,-0.51
2023-01-17T22:46:15.130Z,-0.49
2023-01-17T22:49:00.709Z,-0.47
2023-01-17T22:51:46.286Z,-0.48
2023-01-17T22:54:31.744Z,-0.46
2023-01-17T22:57:17.888Z,-0.49
2023-01-17T23:00:14.576Z,-0.55
2023-01-17T23:03:00.607Z,-0.57
2023-01-17T23:05:46.868Z,-0.60
2023-01-17T23:08:32.557Z,-0.61
2023-01-17T23:11:49.941Z,-0.60
2023-01-17T23:14:55.096Z,-0.59
2023-01-17T23:17:59.055Z,-0.58
2023-01-17T23:20:44.761Z,-0.57
2023-01-17T23:23:31.207Z,-0.57
2023-01-17T23:26:17.013Z,-0.57
2023-01-17T23:29:02.583Z,-0.57
2023-01-17T23:31:47.951Z,-0.56
2023-01-17T23:34:33.381Z,-0.54
2023-01-17T23:37:18.736Z,-0.54
2023-01-17T23:40:04.706Z,-0.54
2023-01-17T23:43:08.721Z,-0.50
2023-01-17T23:45:54.882Z,-0.48
2023-01-17T23:48:40.130Z,-0.46
2023-01-17T23:51:25.385Z,-0.44
2023-01-17T23:54:10.831Z,-0.41
2023-01-17T23:56:56.241Z,-0.41
2023-01-17T23:59:41.460Z,-0.39
